Airfield :
LOGIN :

Register | Disclaimer

   EN    FR    IT 

 










Legend :    VFR   Marginal VFR   IFR   Intensive IFR   Very Intensive IFR
Visi :
Ceiling :
>= 8 km
>= 3000ft
5 to 8 km
1000 to 3000 ft
1500m to 5 km
500 to 1000 ft
800 to 1500m
200 to 500 ft
< 800m
< 200 ft
Symbols :   Thunderstorms  Fog  Heavy snow  Heavy precipitations  Wind > 20 kt
SIGMETs :     Misc.  Thunderstorms  Icing  Turbulence  Mountain Waves  Volcanic Ashes






- Airport Elevation : 726 ft
- IATA code : DIJ


LFSD - Dijon

CURRENT METAR :
  • 062100Z AUTO 35004KT CAVOK 17/08 Q1024

EXPIRED METARs :
  • 062030Z AUTO 35005KT CAVOK 18/08 Q1024
  • 062000Z AUTO 35006KT CAVOK 18/08 Q1024
  • 061930Z AUTO 35006KT CAVOK 20/08 Q1024
  • 061900Z AUTO 35008KT 320V030 CAVOK 21/07 Q1024
  • 061830Z AUTO 35009KT 330V030 CAVOK 22/07 Q1024

Expired Forecast.



MET'MAP, your aeronautical weather chart ! - Copyright ORBIFLY December 2007 - Disclaimer

ORBIFLY MET'MAP TEAM :

Programming & Development : Alexandra Zaïnal
Original concept : Baudouin d'Aumeries
Technical & hardware support : Manuel Goepfert
Assistance : Marc-Olivier Méhu




SOURCES & CREDITS :

   NOAA